createdAt,value
2023-02-05T00:01:29.515Z,4.30
2023-02-05T00:04:16.194Z,4.50
2023-02-05T00:07:03.055Z,4.70
2023-02-05T00:09:49.372Z,4.60
2023-02-05T00:12:35.808Z,4.70
2023-02-05T00:15:22.486Z,4.50
2023-02-05T00:18:10.369Z,4.30
2023-02-05T00:20:56.875Z,4.10
2023-02-05T00:23:43.408Z,4.20
2023-02-05T00:26:29.955Z,4.10
2023-02-05T00:29:17.107Z,4.10
2023-02-05T00:32:03.607Z,4.00
2023-02-05T00:34:52.098Z,4.00
2023-02-05T00:37:38.385Z,4.00
2023-02-05T00:40:24.837Z,3.90
2023-02-05T00:43:11.274Z,4.10
2023-02-05T00:45:57.871Z,4.20
2023-02-05T00:48:45.242Z,4.10
2023-02-05T00:51:33.436Z,4.00
2023-02-05T00:54:19.665Z,4.10
2023-02-05T00:57:06.496Z,4.20
2023-02-05T00:59:53.158Z,4.30
2023-02-05T01:02:39.781Z,4.40
2023-02-05T01:05:26.700Z,4.40
2023-02-05T01:08:14.849Z,4.30
2023-02-05T01:11:01.294Z,4.30
2023-02-05T01:13:48.222Z,4.40
2023-02-05T01:16:35.193Z,4.50
2023-02-05T01:19:22.049Z,4.50
2023-02-05T01:22:09.034Z,4.40
2023-02-05T01:24:56.980Z,4.30
2023-02-05T01:27:43.505Z,4.40
2023-02-05T01:30:30.199Z,4.40
2023-02-05T01:33:17.598Z,4.40
2023-02-05T01:36:04.242Z,4.40
2023-02-05T01:38:50.491Z,4.30
2023-02-05T01:41:41.873Z,4.40
2023-02-05T01:44:30.452Z,4.30
2023-02-05T01:47:17.439Z,4.20
2023-02-05T01:50:03.964Z,4.00
2023-02-05T01:52:51.108Z,3.70
2023-02-05T01:55:44.298Z,3.60
2023-02-05T01:58:36.939Z,3.50
2023-02-05T02:01:23.993Z,3.40
2023-02-05T02:04:11.910Z,3.50
2023-02-05T02:06:58.644Z,3.60
2023-02-05T02:09:48.331Z,3.50
2023-02-05T02:12:38.373Z,3.40
2023-02-05T02:15:28.655Z,3.40
2023-02-05T02:18:27.174Z,3.50
2023-02-05T02:21:39.886Z,3.40
2023-02-05T02:24:43.697Z,3.40
2023-02-05T02:27:39.305Z,3.20
2023-02-05T02:30:31.231Z,3.30
2023-02-05T02:33:21.583Z,3.20
2023-02-05T02:36:14.082Z,3.40
2023-02-05T02:39:09.041Z,3.50
2023-02-05T02:42:02.975Z,3.30
2023-02-05T02:44:56.212Z,3.20
2023-02-05T02:47:48.078Z,3.10
2023-02-05T02:50:38.987Z,2.90
2023-02-05T02:53:29.125Z,2.80
2023-02-05T02:56:17.660Z,2.80
2023-02-05T02:59:08.252Z,2.90
2023-02-05T03:02:01.483Z,2.90
2023-02-05T03:04:53.183Z,3.10
2023-02-05T03:07:43.630Z,3.20
2023-02-05T03:10:38.426Z,3.30
2023-02-05T03:13:25.476Z,3.10
2023-02-05T03:16:19.968Z,2.90
2023-02-05T03:19:09.603Z,2.80
2023-02-05T03:22:00.842Z,2.60
2023-02-05T03:24:47.464Z,2.50
2023-02-05T03:27:35.137Z,2.70
2023-02-05T03:30:23.537Z,2.80
2023-02-05T03:33:24.105Z,2.80
2023-02-05T03:36:21.667Z,2.80
2023-02-05T03:39:22.318Z,2.90
2023-02-05T03:42:22.913Z,3.10
2023-02-05T03:45:25.911Z,3.30
2023-02-05T03:48:37.502Z,3.10
2023-02-05T03:51:38.915Z,3.00
2023-02-05T03:54:35.288Z,2.80
2023-02-05T03:57:27.781Z,2.70
2023-02-05T04:00:17.574Z,2.70
2023-02-05T04:03:06.286Z,2.80
2023-02-05T04:05:54.604Z,2.90
2023-02-05T04:08:43.945Z,3.00
2023-02-05T04:11:32.836Z,3.10
2023-02-05T04:14:22.757Z,3.20
2023-02-05T04:17:11.737Z,3.30
2023-02-05T04:19:58.410Z,3.40
2023-02-05T04:22:45.329Z,3.30
2023-02-05T04:25:33.538Z,3.20
2023-02-05T04:28:20.639Z,3.10
2023-02-05T04:31:09.305Z,3.20
2023-02-05T04:33:57.331Z,3.30
2023-02-05T04:36:44.142Z,3.60
2023-02-05T04:39:31.150Z,3.70
2023-02-05T04:42:19.232Z,3.80
2023-02-05T04:45:06.821Z,3.70
2023-02-05T04:47:53.212Z,3.60
2023-02-05T04:50:40.088Z,3.70
2023-02-05T04:53:26.941Z,3.70
2023-02-05T04:56:15.623Z,3.70
2023-02-05T04:59:03.320Z,3.80
2023-02-05T05:01:49.801Z,3.90
2023-02-05T05:04:37.099Z,4.00
2023-02-05T05:07:23.369Z,3.90
2023-02-05T05:10:10.497Z,3.70
2023-02-05T05:12:57.220Z,3.70
2023-02-05T05:15:45.078Z,3.80
2023-02-05T05:18:32.834Z,4.00
2023-02-05T05:21:19.416Z,4.10
2023-02-05T05:24:05.881Z,4.20
2023-02-05T05:26:52.268Z,4.20
2023-02-05T05:29:39.046Z,4.20
2023-02-05T05:32:26.946Z,4.20
2023-02-05T05:35:13.231Z,4.40
2023-02-05T05:38:00.290Z,4.30
2023-02-05T05:41:04.370Z,4.40
2023-02-05T05:43:51.920Z,4.40
2023-02-05T05:46:38.424Z,4.30
2023-02-05T05:49:26.107Z,4.40
2023-02-05T05:52:12.497Z,4.40
2023-02-05T05:54:58.835Z,4.30
2023-02-05T05:57:45.215Z,4.10
2023-02-05T06:00:31.491Z,4.00
2023-02-05T06:03:18.124Z,3.80
2023-02-05T06:06:07.943Z,3.80
2023-02-05T06:08:54.453Z,4.00
2023-02-05T06:11:40.718Z,4.00
2023-02-05T06:14:27.078Z,3.80
2023-02-05T06:17:13.416Z,3.70
2023-02-05T06:19:59.708Z,3.70
2023-02-05T06:22:47.539Z,3.70
2023-02-05T06:25:34.808Z,3.80
2023-02-05T06:28:21.853Z,4.00
2023-02-05T06:31:08.215Z,4.10
2023-02-05T06:33:54.750Z,4.20
2023-02-05T06:36:41.104Z,4.40
2023-02-05T06:39:29.024Z,4.40
2023-02-05T06:42:15.405Z,4.50
2023-02-05T06:45:01.933Z,4.50
2023-02-05T06:47:48.916Z,4.40
2023-02-05T06:50:35.703Z,4.40
2023-02-05T06:53:22.456Z,4.50
2023-02-05T06:56:10.544Z,4.60
2023-02-05T06:58:57.174Z,4.60
2023-02-05T07:01:43.807Z,4.60
2023-02-05T07:04:31.831Z,4.70
2023-02-05T07:07:18.316Z,4.70
2023-02-05T07:10:05.284Z,4.80
2023-02-05T07:12:52.955Z,4.80
2023-02-05T07:15:39.722Z,4.50
2023-02-05T07:18:26.061Z,4.20
2023-02-05T07:21:17.169Z,4.20
2023-02-05T07:24:04.174Z,4.10
2023-02-05T07:26:50.663Z,4.00
2023-02-05T07:29:38.769Z,4.00
2023-02-05T07:32:25.746Z,4.10
2023-02-05T07:35:12.274Z,4.10
2023-02-05T07:37:59.211Z,4.10
2023-02-05T07:40:45.532Z,4.00
2023-02-05T07:43:32.510Z,3.90
2023-02-05T07:46:21.928Z,3.80
2023-02-05T07:49:08.653Z,3.80
2023-02-05T07:51:55.113Z,3.80
2023-02-05T07:54:41.673Z,3.80
2023-02-05T07:57:28.018Z,3.80
2023-02-05T08:00:15.003Z,3.90
2023-02-05T08:03:02.833Z,4.20
2023-02-05T08:05:49.076Z,4.20
2023-02-05T08:08:36.130Z,4.10
2023-02-05T08:11:22.875Z,4.20
2023-02-05T08:14:09.246Z,4.10
2023-02-05T08:16:55.687Z,4.10
2023-02-05T08:19:43.513Z,4.10
2023-02-05T08:22:29.860Z,4.10
2023-02-05T08:25:16.408Z,4.20
2023-02-05T08:28:03.169Z,4.10
2023-02-05T08:30:49.979Z,4.10
2023-02-05T08:33:36.433Z,4.10
2023-02-05T08:36:24.224Z,4.20
2023-02-05T08:39:10.607Z,4.20
2023-02-05T08:41:57.227Z,4.30
2023-02-05T08:44:43.966Z,4.40
2023-02-05T08:47:30.656Z,4.40
2023-02-05T08:50:17.325Z,4.60
2023-02-05T08:53:05.370Z,4.90
2023-02-05T08:55:56.376Z,5.10
2023-02-05T08:58:42.950Z,5.10
2023-02-05T09:01:29.605Z,5.20
2023-02-05T09:04:17.954Z,5.30
2023-02-05T09:07:04.805Z,5.50
2023-02-05T09:09:52.979Z,5.50
2023-02-05T09:12:40.040Z,5.60
2023-02-05T09:15:26.659Z,5.70
2023-02-05T09:18:13.427Z,5.70
2023-02-05T09:20:59.825Z,5.80
2023-02-05T09:23:46.597Z,5.90
2023-02-05T09:26:35.038Z,5.90
2023-02-05T09:29:21.566Z,6.00
2023-02-05T09:32:07.920Z,6.00
2023-02-05T09:34:54.605Z,6.00
2023-02-05T09:37:40.764Z,6.00
2023-02-05T09:40:33.649Z,5.90
2023-02-05T09:43:30.780Z,5.80
2023-02-05T09:46:26.813Z,5.90
2023-02-05T09:49:19.505Z,6.00
2023-02-05T09:52:14.476Z,5.90
2023-02-05T09:55:03.946Z,5.90
2023-02-05T09:57:52.060Z,5.80
2023-02-05T10:00:46.790Z,5.80
2023-02-05T10:03:37.805Z,5.80
2023-02-05T10:06:51.559Z,5.80
2023-02-05T10:10:22.397Z,5.80
2023-02-05T10:13:32.028Z,6.00
2023-02-05T10:16:34.983Z,6.00
2023-02-05T10:19:35.258Z,6.00
2023-02-05T10:22:27.589Z,6.00
2023-02-05T10:25:45.413Z,6.10
2023-02-05T10:29:17.389Z,6.10
2023-02-05T10:32:17.511Z,6.20
2023-02-05T10:35:13.457Z,6.10
2023-02-05T10:38:00.120Z,6.10
2023-02-05T10:40:47.590Z,6.10
2023-02-05T10:43:39.373Z,6.10
2023-02-05T10:46:32.100Z,6.10
2023-02-05T10:49:25.620Z,6.10
2023-02-05T10:52:14.196Z,6.00
2023-02-05T10:55:01.362Z,6.00
2023-02-05T10:57:48.092Z,5.90
2023-02-05T11:00:35.215Z,5.90
2023-02-05T11:03:24.360Z,5.80
2023-02-05T11:06:12.757Z,5.80
2023-02-05T11:09:00.022Z,5.80
2023-02-05T11:11:52.526Z,5.70
2023-02-05T11:14:43.455Z,5.80
2023-02-05T11:17:34.094Z,5.80
2023-02-05T11:20:27.832Z,5.80
2023-02-05T11:23:21.094Z,5.80
2023-02-05T11:26:18.082Z,5.90
2023-02-05T11:29:20.321Z,6.00
2023-02-05T11:32:20.365Z,5.90
2023-02-05T11:35:26.283Z,6.00
2023-02-05T11:38:29.656Z,6.00
2023-02-05T11:41:28.137Z,6.00
2023-02-05T11:44:20.420Z,6.00
2023-02-05T11:47:06.993Z,5.90
2023-02-05T11:49:54.205Z,5.90
2023-02-05T11:52:40.701Z,5.90
2023-02-05T11:55:31.901Z,6.00
2023-02-05T11:58:36.062Z,6.00
2023-02-05T12:01:25.663Z,6.00
2023-02-05T12:04:18.867Z,6.00
2023-02-05T12:07:12.705Z,5.90
2023-02-05T12:09:59.911Z,5.90
2023-02-05T12:12:59.060Z,5.90
2023-02-05T12:15:54.967Z,5.90
2023-02-05T12:18:53.147Z,6.00
2023-02-05T12:21:47.782Z,6.00
2023-02-05T12:24:51.655Z,6.00
2023-02-05T12:27:52.597Z,6.00
2023-02-05T12:30:51.874Z,6.00
2023-02-05T12:34:09.929Z,5.80
2023-02-05T12:37:08.987Z,5.80
2023-02-05T12:40:02.145Z,5.80
2023-02-05T12:42:59.208Z,5.80
2023-02-05T12:45:53.642Z,5.90
2023-02-05T12:48:58.279Z,6.00
2023-02-05T12:52:00.932Z,6.00
2023-02-05T12:55:05.653Z,6.00
2023-02-05T12:57:58.405Z,6.20
2023-02-05T13:00:50.118Z,6.30
2023-02-05T13:03:40.114Z,6.40
2023-02-05T13:06:30.870Z,6.50
2023-02-05T13:09:22.494Z,6.50
2023-02-05T13:12:12.688Z,6.60
2023-02-05T13:15:14.569Z,6.50
2023-02-05T13:18:06.411Z,6.50
2023-02-05T13:21:16.133Z,6.50
2023-02-05T13:24:43.624Z,6.50
2023-02-05T13:27:52.247Z,6.50
2023-02-05T13:30:43.245Z,6.50
2023-02-05T13:33:29.977Z,6.60
2023-02-05T13:36:41.787Z,6.60
2023-02-05T13:40:06.113Z,6.50
2023-02-05T13:43:26.972Z,6.60
2023-02-05T13:46:29.532Z,6.50
2023-02-05T13:49:59.135Z,6.60
2023-02-05T13:53:12.330Z,6.60
2023-02-05T13:56:15.948Z,6.60
2023-02-05T13:59:05.550Z,6.50
2023-02-05T14:01:57.893Z,6.70
2023-02-05T14:04:53.931Z,6.80
2023-02-05T14:07:46.482Z,6.70
2023-02-05T14:10:37.210Z,6.70
2023-02-05T14:13:27.696Z,6.60
2023-02-05T14:16:36.315Z,6.60
2023-02-05T14:19:26.874Z,6.60
2023-02-05T14:22:33.136Z,6.60
2023-02-05T14:26:05.674Z,6.60
2023-02-05T14:28:53.090Z,6.60
2023-02-05T14:31:49.973Z,6.70
2023-02-05T14:34:48.895Z,6.70
2023-02-05T14:37:39.153Z,6.70
2023-02-05T14:40:29.895Z,6.70
2023-02-05T14:43:25.435Z,6.70
2023-02-05T14:46:26.440Z,6.60
2023-02-05T14:49:23.954Z,6.70
2023-02-05T14:52:26.980Z,6.70
2023-02-05T14:55:20.992Z,6.80
2023-02-05T14:58:11.622Z,6.80
2023-02-05T15:01:31.341Z,6.80
2023-02-05T15:04:29.770Z,6.70
2023-02-05T15:07:22.545Z,6.70
2023-02-05T15:10:17.257Z,6.70
2023-02-05T15:13:09.942Z,6.70
2023-02-05T15:16:21.644Z,6.60
2023-02-05T15:19:10.924Z,6.60
2023-02-05T15:21:57.670Z,6.60
2023-02-05T15:24:46.493Z,6.60
2023-02-05T15:27:42.393Z,6.70
2023-02-05T15:30:34.455Z,6.70
2023-02-05T15:33:34.077Z,6.70
2023-02-05T15:36:32.284Z,6.80
2023-02-05T15:39:25.941Z,6.80
2023-02-05T15:42:18.982Z,6.90
2023-02-05T15:45:19.097Z,6.70
2023-02-05T15:48:12.251Z,6.80
2023-02-05T15:51:01.164Z,6.80
2023-02-05T15:53:51.327Z,6.70
2023-02-05T15:56:42.088Z,6.70
2023-02-05T15:59:31.788Z,6.80
2023-02-05T16:02:21.636Z,6.80
2023-02-05T16:05:19.829Z,6.80
2023-02-05T16:08:18.570Z,6.80
2023-02-05T16:11:06.677Z,6.70
2023-02-05T16:14:04.097Z,6.70
2023-02-05T16:17:05.991Z,6.70
2023-02-05T16:19:56.194Z,6.80
2023-02-05T16:22:45.656Z,6.80
2023-02-05T16:25:37.996Z,6.80
2023-02-05T16:28:31.355Z,6.80
2023-02-05T16:31:20.558Z,6.70
2023-02-05T16:34:14.066Z,6.70
2023-02-05T16:37:04.222Z,6.80
2023-02-05T16:39:54.489Z,6.70
2023-02-05T16:42:44.019Z,6.80
2023-02-05T16:45:31.384Z,6.80
2023-02-05T16:48:28.211Z,6.70
2023-02-05T16:51:39.442Z,6.60
2023-02-05T16:54:34.885Z,6.60
2023-02-05T16:57:30.901Z,6.50
2023-02-05T17:00:21.552Z,6.30
2023-02-05T17:03:17.196Z,6.20
2023-02-05T17:06:09.019Z,6.20
2023-02-05T17:08:57.209Z,6.20
2023-02-05T17:11:44.100Z,6.20
2023-02-05T17:14:32.612Z,6.10
2023-02-05T17:17:20.240Z,6.10
2023-02-05T17:20:20.267Z,6.20
2023-02-05T17:23:14.163Z,6.40
2023-02-05T17:26:02.083Z,6.40
2023-02-05T17:28:53.656Z,6.50
2023-02-05T17:31:40.535Z,6.50
2023-02-05T17:34:27.372Z,6.60
2023-02-05T17:37:14.189Z,6.60
2023-02-05T17:40:00.522Z,6.60
2023-02-05T17:42:49.185Z,6.50
2023-02-05T17:45:39.465Z,6.40
2023-02-05T17:48:26.207Z,6.40
2023-02-05T17:51:19.962Z,6.30
2023-02-05T17:54:11.369Z,6.20
2023-02-05T17:57:05.802Z,6.20
2023-02-05T17:59:53.742Z,6.30
2023-02-05T18:02:40.459Z,6.10
2023-02-05T18:05:26.964Z,6.10
2023-02-05T18:08:13.474Z,6.10
2023-02-05T18:10:59.798Z,6.10
2023-02-05T18:13:46.052Z,6.00
2023-02-05T18:16:34.095Z,5.90
2023-02-05T18:19:20.718Z,5.90
2023-02-05T18:22:07.843Z,6.00
2023-02-05T18:24:54.805Z,6.10
2023-02-05T18:27:41.696Z,6.00
2023-02-05T18:30:29.683Z,6.10
2023-02-05T18:33:17.616Z,6.10
2023-02-05T18:36:07.055Z,6.00
2023-02-05T18:38:53.407Z,6.00
2023-02-05T18:41:40.017Z,5.90
2023-02-05T18:44:26.750Z,6.00
2023-02-05T18:47:13.875Z,6.10
2023-02-05T18:50:01.740Z,6.10
2023-02-05T18:52:48.311Z,6.20
2023-02-05T18:55:36.354Z,6.20
2023-02-05T18:58:23.008Z,6.10
2023-02-05T19:01:11.410Z,6.10
2023-02-05T19:04:02.277Z,6.00
2023-02-05T19:06:53.368Z,6.10
2023-02-05T19:09:40.103Z,6.00
2023-02-05T19:12:26.367Z,6.00
2023-02-05T19:15:12.750Z,6.00
2023-02-05T19:17:59.125Z,5.90
2023-02-05T19:20:46.208Z,5.90
2023-02-05T19:23:34.715Z,5.80
2023-02-05T19:26:23.194Z,5.80
2023-02-05T19:29:14.730Z,5.90
2023-02-05T19:32:04.225Z,5.90
2023-02-05T19:34:50.774Z,5.80
2023-02-05T19:37:37.027Z,5.80
2023-02-05T19:40:25.393Z,5.80
2023-02-05T19:43:17.508Z,5.80
2023-02-05T19:46:04.535Z,5.80
2023-02-05T19:48:51.484Z,5.80
2023-02-05T19:51:38.276Z,5.70
2023-02-05T19:54:24.714Z,5.70
2023-02-05T19:57:12.423Z,5.60
2023-02-05T19:59:58.961Z,5.60
2023-02-05T20:02:45.625Z,5.60
2023-02-05T20:05:32.429Z,5.50
2023-02-05T20:08:19.080Z,5.30
2023-02-05T20:11:05.998Z,5.30
2023-02-05T20:13:54.284Z,5.40
2023-02-05T20:16:41.248Z,5.30
2023-02-05T20:19:27.838Z,5.10
2023-02-05T20:22:14.111Z,4.90
2023-02-05T20:25:00.654Z,4.90
2023-02-05T20:27:47.796Z,4.80
2023-02-05T20:30:52.920Z,4.80
2023-02-05T20:33:39.859Z,4.80
2023-02-05T20:36:26.385Z,4.60
2023-02-05T20:39:13.119Z,4.50
2023-02-05T20:42:00.830Z,4.40
2023-02-05T20:44:47.716Z,4.40
2023-02-05T20:47:35.795Z,4.30
2023-02-05T20:50:22.170Z,4.20
2023-02-05T20:53:08.570Z,4.20
2023-02-05T20:56:01.520Z,4.20
2023-02-05T20:58:48.597Z,4.10
2023-02-05T21:01:39.730Z,4.10
2023-02-05T21:04:28.042Z,4.10
2023-02-05T21:07:14.324Z,4.00
2023-02-05T21:10:02.157Z,4.00
2023-02-05T21:12:49.297Z,4.00
2023-02-05T21:15:35.684Z,4.00
2023-02-05T21:18:22.489Z,3.90
2023-02-05T21:21:12.582Z,3.90
2023-02-05T21:24:01.210Z,3.90
2023-02-05T21:26:49.635Z,3.90
2023-02-05T21:29:36.446Z,3.70
2023-02-05T21:32:22.663Z,3.70
2023-02-05T21:35:09.408Z,3.60
2023-02-05T21:37:57.394Z,3.60
2023-02-05T21:40:43.670Z,3.70
2023-02-05T21:43:29.900Z,3.70
2023-02-05T21:46:16.287Z,3.60
2023-02-05T21:49:04.032Z,3.60
2023-02-05T21:51:53.182Z,3.50
2023-02-05T21:54:41.306Z,3.50
2023-02-05T21:57:27.702Z,3.50
2023-02-05T22:00:14.956Z,3.70
2023-02-05T22:03:01.760Z,3.80
2023-02-05T22:05:48.197Z,3.70
2023-02-05T22:08:34.995Z,3.60
2023-02-05T22:11:23.450Z,3.50
2023-02-05T22:14:11.395Z,3.60
2023-02-05T22:16:57.943Z,3.40
2023-02-05T22:19:44.610Z,3.40
2023-02-05T22:22:31.002Z,3.50
2023-02-05T22:25:17.632Z,3.50
2023-02-05T22:28:06.056Z,3.50
2023-02-05T22:30:52.777Z,3.50
2023-02-05T22:33:41.630Z,3.60
2023-02-05T22:36:30.459Z,3.70
2023-02-05T22:39:17.146Z,3.60
2023-02-05T22:42:04.735Z,3.60
2023-02-05T22:44:54.407Z,3.50
2023-02-05T22:47:41.163Z,3.50
2023-02-05T22:50:28.073Z,3.60
2023-02-05T22:53:14.740Z,3.70
2023-02-05T22:56:02.747Z,3.80
2023-02-05T22:58:50.017Z,3.80
2023-02-05T23:01:39.233Z,3.50
2023-02-05T23:04:25.533Z,3.40
2023-02-05T23:07:11.946Z,3.40
2023-02-05T23:09:58.143Z,3.40
2023-02-05T23:12:44.485Z,3.30
2023-02-05T23:15:30.914Z,3.30
2023-02-05T23:18:18.691Z,3.30
2023-02-05T23:21:09.043Z,3.30
2023-02-05T23:23:55.898Z,3.40
2023-02-05T23:26:45.794Z,3.30
2023-02-05T23:29:32.294Z,3.30
2023-02-05T23:32:18.785Z,3.40
2023-02-05T23:35:07.642Z,3.50
2023-02-05T23:37:54.193Z,3.60
2023-02-05T23:40:40.600Z,3.70
2023-02-05T23:43:27.328Z,3.60
2023-02-05T23:46:14.593Z,3.60
2023-02-05T23:49:01.403Z,3.40
2023-02-05T23:51:49.157Z,3.50
2023-02-05T23:54:35.685Z,3.30
2023-02-05T23:57:22.198Z,3.30
